Time;durP1;ratioP1;P1;durP2;ratioP2;P2;SDS_P1;SDS_P2;PMS_P1;PMS_P2;Temp;Humidity;BMP_temperature;BMP_pressure;BME280_temperature;BME280_humidity;BME280_pressure;Samples;Min_cycle;Max_cycle;Signal;HPM_P1;HPM_P2
2022/11/22 00:00:34;;;;;;;63.35;35.88;;;3.00;99.90;;;;;;5016454;28;20125;-74
2022/11/22 00:02:59;;;;;;;53.10;32.55;;;3.00;99.90;;;;;;5014993;28;20046;-75
2022/11/22 00:05:25;;;;;;;61.75;34.88;;;3.00;99.90;;;;;;5015671;28;20117;-74
2022/11/22 00:07:51;;;;;;;53.78;33.33;;;2.90;99.90;;;;;;5015608;28;20468;-74
2022/11/22 00:10:17;;;;;;;55.05;34.58;;;2.90;99.90;;;;;;4997868;28;20120;-74
2022/11/22 00:12:43;;;;;;;57.35;34.78;;;3.50;99.90;;;;;;5015472;28;20046;-74
2022/11/22 00:15:09;;;;;;;58.17;35.55;;;2.90;99.90;;;;;;5015800;28;20053;-74
2022/11/22 00:17:35;;;;;;;64.88;36.30;;;2.90;99.90;;;;;;5015332;28;20046;-74
2022/11/22 00:20:01;;;;;;;56.72;33.83;;;2.90;99.90;;;;;;5015604;28;20092;-74
2022/11/22 00:22:27;;;;;;;62.67;35.53;;;2.90;99.90;;;;;;5015940;28;20042;-74
2022/11/22 00:24:52;;;;;;;59.63;35.05;;;2.90;99.90;;;;;;4997775;28;20046;-74
2022/11/22 00:27:19;;;;;;;61.15;35.22;;;3.50;99.90;;;;;;5015669;28;20118;-74
2022/11/22 00:29:44;;;;;;;58.05;34.83;;;2.90;99.90;;;;;;5015650;28;20060;-74
2022/11/22 00:32:10;;;;;;;61.22;36.50;;;2.90;99.90;;;;;;4997926;28;20120;-74
2022/11/22 00:34:35;;;;;;;61.45;36.22;;;2.90;99.90;;;;;;5015144;28;20527;-73
2022/11/22 00:37:01;;;;;;;64.05;36.72;;;2.90;99.90;;;;;;4997555;28;20056;-74
2022/11/22 00:39:26;;;;;;;68.55;37.65;;;2.90;99.90;;;;;;4998614;28;20466;-74
2022/11/22 00:41:52;;;;;;;60.00;36.58;;;2.80;99.90;;;;;;4998348;28;20128;-73
2022/11/22 00:44:17;;;;;;;58.33;34.13;;;2.90;99.90;;;;;;5015245;28;20355;-74
2022/11/22 00:46:43;;;;;;;56.65;35.40;;;2.80;99.90;;;;;;5014893;28;20048;-74
2022/11/22 00:49:09;;;;;;;71.55;37.45;;;2.80;99.90;;;;;;4997684;28;20125;-74
2022/11/22 00:51:34;;;;;;;68.60;38.22;;;2.80;99.90;;;;;;5014996;28;20042;-74
2022/11/22 00:54:00;;;;;;;63.80;36.83;;;2.80;99.90;;;;;;5014993;28;20045;-74
2022/11/22 00:56:26;;;;;;;60.17;37.22;;;2.80;99.90;;;;;;5015220;28;20058;-73
2022/11/22 00:58:51;;;;;;;58.92;36.30;;;2.80;99.90;;;;;;5015650;28;20049;-74
2022/11/22 01:01:17;;;;;;;68.13;39.55;;;2.80;99.90;;;;;;5014814;28;20046;-74
2022/11/22 01:03:42;;;;;;;60.90;35.85;;;2.70;99.90;;;;;;4997973;28;20050;-74
2022/11/22 01:06:08;;;;;;;58.30;35.92;;;2.70;99.90;;;;;;5015427;28;20065;-74
2022/11/22 01:08:33;;;;;;;76.72;39.75;;;3.20;99.90;;;;;;5014944;28;20037;-74
2022/11/22 01:11:00;;;;;;;64.10;37.60;;;2.70;99.90;;;;;;4998055;28;20336;-74
2022/11/22 01:13:27;;;;;;;63.65;38.60;;;2.70;99.90;;;;;;5014839;28;20042;-74
2022/11/22 01:16:01;;;;;;;71.07;38.65;;;2.70;99.90;;;;;;5014672;28;20172;-74
2022/11/22 01:18:27;;;;;;;65.25;37.53;;;3.20;99.90;;;;;;5015170;28;20053;-74
2022/11/22 01:20:53;;;;;;;73.93;39.25;;;2.70;99.90;;;;;;5014660;28;20057;-74
2022/11/22 01:23:18;;;;;;;83.65;41.95;;;2.70;99.90;;;;;;5014523;28;20046;-73
2022/11/22 01:25:44;;;;;;;74.43;39.55;;;2.70;99.90;;;;;;5015163;28;20112;-74
2022/11/22 01:28:11;;;;;;;68.22;39.40;;;2.80;99.90;;;;;;4997390;28;20050;-74
2022/11/22 01:30:36;;;;;;;79.75;40.03;;;2.80;99.90;;;;;;5014611;28;20142;-73
2022/11/22 01:33:02;;;;;;;73.38;40.05;;;2.80;99.90;;;;;;5014664;28;20050;-74
2022/11/22 01:35:28;;;;;;;91.63;43.58;;;2.80;99.90;;;;;;5015013;28;20108;-74
2022/11/22 01:37:53;;;;;;;75.38;41.78;;;2.80;99.90;;;;;;5015024;28;20100;-73
2022/11/22 01:40:19;;;;;;;71.65;41.22;;;2.80;99.90;;;;;;5014705;28;20457;-74
2022/11/22 01:42:53;;;;;;;74.50;41.20;;;2.80;99.90;;;;;;5014807;28;20077;-74
2022/11/22 01:45:28;;;;;;;77.63;41.80;;;2.80;99.90;;;;;;5017878;28;20129;-74
2022/11/22 01:48:09;;;;;;;82.60;43.35;;;2.80;99.90;;;;;;5017806;28;20052;-74
2022/11/22 01:50:38;;;;;;;82.88;43.55;;;2.80;99.90;;;;;;5018112;28;20084;-74
2022/11/22 01:53:11;;;;;;;78.97;41.72;;;2.80;99.90;;;;;;5018073;28;20049;-74
2022/11/22 01:55:38;;;;;;;76.60;41.47;;;2.80;99.90;;;;;;5018067;28;20046;-75
2022/11/22 01:58:04;;;;;;;94.63;45.53;;;2.80;99.90;;;;;;5018147;28;20458;-74
2022/11/22 02:00:29;;;;;;;81.85;42.60;;;2.90;99.90;;;;;;5017661;28;20046;-73
2022/11/22 02:02:59;;;;;;;84.75;44.30;;;2.90;99.90;;;;;;5017886;28;20355;-75
2022/11/22 02:05:30;;;;;;;92.10;45.83;;;2.90;99.90;;;;;;5018150;28;20107;-73
2022/11/22 02:08:06;;;;;;;87.65;45.30;;;2.90;99.90;;;;;;5000594;28;20081;-74
2022/11/22 02:10:36;;;;;;;88.68;44.63;;;2.90;99.90;;;;;;5017784;28;20079;-74
2022/11/22 02:13:02;;;;;;;85.40;42.85;;;2.90;99.90;;;;;;5018057;28;20042;-74
2022/11/22 02:15:28;;;;;;;73.45;42.25;;;3.60;99.90;;;;;;5017248;28;20078;-74
2022/11/22 02:17:56;;;;;;;83.95;42.30;;;2.90;99.90;;;;;;5017494;28;20092;-74
2022/11/22 02:20:22;;;;;;;89.93;44.10;;;3.00;99.90;;;;;;5017639;28;20057;-74
2022/11/22 02:23:12;;;;;;;105.13;47.08;;;3.00;99.90;;;;;;5018192;28;20050;-74
2022/11/22 02:25:41;;;;;;;82.65;43.50;;;3.00;99.90;;;;;;5017881;28;20144;-74
2022/11/22 02:28:11;;;;;;;86.13;43.72;;;3.30;99.90;;;;;;5000365;28;20056;-74
2022/11/22 02:30:37;;;;;;;82.20;44.40;;;3.00;99.90;;;;;;5017100;28;20165;-74
2022/11/22 02:33:03;;;;;;;88.40;44.80;;;3.00;99.90;;;;;;5017332;28;20068;-73
2022/11/22 02:35:29;;;;;;;70.93;42.15;;;3.00;99.90;;;;;;4999347;28;20457;-74
2022/11/22 02:38:04;;;;;;;98.97;45.33;;;3.50;99.90;;;;;;5017077;28;20037;-74
2022/11/22 02:40:39;;;;;;;93.05;45.88;;;3.00;99.90;;;;;;5017135;28;20085;-74
2022/11/22 02:43:09;;;;;;;81.60;44.33;;;3.00;99.90;;;;;;5017151;28;20041;-74
2022/11/22 02:45:34;;;;;;;84.68;42.30;;;3.00;99.90;;;;;;5016913;28;20049;-74
2022/11/22 02:48:05;;;;;;;89.30;44.25;;;3.10;99.90;;;;;;5016708;28;20034;-74
2022/11/22 02:50:30;;;;;;;81.10;42.50;;;3.10;99.90;;;;;;5016762;28;20100;-73
2022/11/22 02:52:56;;;;;;;139.15;50.03;;;3.10;99.90;;;;;;5016835;28;20455;-74
2022/11/22 02:55:21;;;;;;;81.18;41.42;;;3.10;99.90;;;;;;4998098;28;20451;-74
2022/11/22 02:57:47;;;;;;;101.78;45.60;;;3.10;99.90;;;;;;4983495;28;20533;-73
2022/11/22 03:00:13;;;;;;;106.38;46.40;;;3.10;99.90;;;;;;5016420;28;20046;-74
2022/11/22 03:02:38;;;;;;;97.88;45.83;;;3.10;99.90;;;;;;5015934;28;20041;-74
2022/11/22 03:05:04;;;;;;;91.20;44.42;;;3.10;99.90;;;;;;5016165;28;20050;-75
2022/11/22 03:07:30;;;;;;;88.82;43.80;;;3.20;99.90;;;;;;5016980;28;20121;-74
2022/11/22 03:09:55;;;;;;;108.72;47.40;;;3.20;99.90;;;;;;5016521;28;20466;-74
2022/11/22 03:12:21;;;;;;;75.53;40.15;;;3.20;99.90;;;;;;5017264;28;20097;-74
2022/11/22 03:14:46;;;;;;;95.75;44.78;;;3.20;99.90;;;;;;5016368;28;20417;-74
2022/11/22 03:17:13;;;;;;;115.65;46.88;;;3.20;99.90;;;;;;5016612;28;20033;-74
2022/11/22 03:19:38;;;;;;;84.82;43.72;;;3.20;99.90;;;;;;4982723;28;20141;-74
2022/11/22 03:22:04;;;;;;;83.97;43.17;;;3.30;99.90;;;;;;4999534;28;20133;-74
2022/11/22 03:24:29;;;;;;;97.50;44.08;;;3.30;99.90;;;;;;5016711;28;20422;-73
2022/11/22 03:26:55;;;;;;;106.38;46.72;;;3.30;99.90;;;;;;5016636;28;20129;-74
2022/11/22 03:29:21;;;;;;;89.68;44.05;;;3.30;99.90;;;;;;4999145;28;20108;-73
2022/11/22 03:31:46;;;;;;;81.93;42.20;;;3.30;99.90;;;;;;5016286;28;20506;-74
2022/11/22 03:34:12;;;;;;;83.13;39.88;;;3.30;99.90;;;;;;5016458;28;20056;-73
2022/11/22 03:36:38;;;;;;;92.10;42.45;;;3.30;99.90;;;;;;5016084;28;20061;-74
2022/11/22 03:39:03;;;;;;;85.20;41.30;;;3.30;99.90;;;;;;5016286;28;20050;-74
2022/11/22 03:41:29;;;;;;;92.95;43.60;;;3.40;99.90;;;;;;5016132;28;20049;-73
2022/11/22 03:43:54;;;;;;;85.05;40.47;;;3.40;99.90;;;;;;5015509;28;20121;-74
2022/11/22 03:46:20;;;;;;;83.70;43.45;;;3.40;99.90;;;;;;5015725;28;20061;-74
2022/11/22 03:48:46;;;;;;;97.22;43.92;;;3.40;99.90;;;;;;5016449;28;20046;-74
2022/11/22 03:51:12;;;;;;;96.78;42.92;;;3.40;99.90;;;;;;5016137;28;20042;-74
2022/11/22 03:53:37;;;;;;;91.68;44.05;;;3.40;99.90;;;;;;5015747;28;20064;-74
2022/11/22 03:56:03;;;;;;;78.57;40.60;;;3.40;99.90;;;;;;5016117;28;20050;-74
2022/11/22 03:58:30;;;;;;;91.90;43.08;;;3.40;99.90;;;;;;5015690;28;20074;-73
2022/11/22 04:00:56;;;;;;;85.35;42.38;;;3.40;99.90;;;;;;5015501;28;20037;-74
2022/11/22 04:03:22;;;;;;;86.45;43.15;;;3.50;99.90;;;;;;5015583;28;20801;-74
2022/11/22 04:05:47;;;;;;;115.05;45.17;;;3.40;99.90;;;;;;5015281;28;20402;-74
2022/11/22 04:08:13;;;;;;;75.07;39.38;;;3.50;99.90;;;;;;5015472;28;20050;-75
2022/11/22 04:10:39;;;;;;;102.55;45.08;;;3.50;99.90;;;;;;5015972;28;20067;-74
2022/11/22 04:13:04;;;;;;;95.15;44.55;;;3.50;99.90;;;;;;5015615;28;20054;-74
2022/11/22 04:15:30;;;;;;;96.35;43.22;;;3.50;99.90;;;;;;4997709;28;20050;-74
2022/11/22 04:17:56;;;;;;;73.78;39.13;;;3.50;99.90;;;;;;5015802;28;20050;-74
2022/11/22 04:23:14;;;;;;;78.80;40.38;;;3.50;99.90;;;;;;5015337;28;20434;-73
2022/11/22 04:25:45;;;;;;;77.43;40.63;;;3.60;99.90;;;;;;5015597;28;20140;-74
2022/11/22 04:28:12;;;;;;;87.50;41.63;;;3.60;99.90;;;;;;4998055;28;20042;-73
2022/11/22 04:33:22;;;;;;;79.97;40.80;;;3.60;99.90;;;;;;5015167;28;20053;-73
2022/11/22 04:35:48;;;;;;;85.85;40.30;;;3.60;99.90;;;;;;5015699;28;20510;-74
2022/11/22 04:38:15;;;;;;;78.68;41.17;;;3.60;99.90;;;;;;5015541;28;20077;-74
2022/11/22 04:40:41;;;;;;;79.47;39.75;;;3.70;99.90;;;;;;4998084;28;20038;-74
2022/11/22 04:45:57;;;;;;;67.95;38.35;;;3.70;99.90;;;;;;5015098;28;20085;-74
2022/11/22 04:48:23;;;;;;;76.85;39.75;;;3.70;99.90;;;;;;5015943;28;20117;-74
2022/11/22 04:53:33;;;;;;;75.90;41.35;;;3.70;99.90;;;;;;5014896;28;20054;-74
2022/11/22 04:55:58;;;;;;;67.82;37.45;;;3.70;99.90;;;;;;5015033;28;20042;-74
2022/11/22 04:58:24;;;;;;;83.82;42.22;;;3.80;99.90;;;;;;5015716;28;20053;-75
2022/11/22 05:00:50;;;;;;;92.75;41.60;;;3.80;99.90;;;;;;4981225;28;20037;-74
2022/11/22 05:03:18;;;;;;;89.00;43.33;;;3.80;99.90;;;;;;4998118;28;20057;-74
2022/11/22 05:05:44;;;;;;;79.65;41.35;;;3.80;99.90;;;;;;4997393;28;20033;-75
2022/11/22 05:08:10;;;;;;;83.07;42.97;;;3.80;99.90;;;;;;5013988;28;20053;-74
2022/11/22 05:13:30;;;;;;;72.35;40.05;;;3.80;99.90;;;;;;5014740;28;20089;-73
2022/11/22 05:15:56;;;;;;;92.00;43.17;;;3.80;99.90;;;;;;5014825;28;20042;-74
2022/11/22 05:18:23;;;;;;;80.43;42.05;;;3.90;99.90;;;;;;4982077;28;20060;-74
2022/11/22 05:20:48;;;;;;;80.38;41.90;;;3.90;99.90;;;;;;5001101;28;20458;-75
2022/11/22 05:25:59;;;;;;;70.20;41.95;;;3.90;99.90;;;;;;5001545;28;20050;-75
2022/11/22 05:28:29;;;;;;;78.78;41.75;;;3.90;99.90;;;;;;5001039;28;20042;-74
2022/11/22 05:30:55;;;;;;;78.78;42.33;;;3.90;99.90;;;;;;5018855;28;20049;-74
2022/11/22 05:33:21;;;;;;;86.28;43.85;;;3.90;99.90;;;;;;5000852;28;20108;-74
2022/11/22 05:35:46;;;;;;;97.05;43.55;;;3.90;99.90;;;;;;5017930;28;20070;-74
2022/11/22 05:38:12;;;;;;;75.10;41.70;;;3.90;99.90;;;;;;5018238;28;20049;-75
2022/11/22 05:40:38;;;;;;;93.38;44.28;;;3.90;99.90;;;;;;5018470;28;20041;-74
2022/11/22 05:43:03;;;;;;;88.43;43.42;;;3.90;99.90;;;;;;5017310;28;20057;-74
2022/11/22 05:45:29;;;;;;;74.53;41.85;;;3.90;99.90;;;;;;5001797;28;20046;-75
2022/11/22 05:47:55;;;;;;;90.28;43.60;;;3.90;99.90;;;;;;4984285;28;20079;-74
2022/11/22 05:50:21;;;;;;;83.53;43.10;;;4.00;99.90;;;;;;5018342;28;20075;-75
2022/11/22 05:52:46;;;;;;;102.18;45.75;;;4.00;99.90;;;;;;5018107;28;20113;-75
2022/11/22 05:55:12;;;;;;;107.30;46.83;;;4.00;99.90;;;;;;5017967;28;20060;-74
2022/11/22 05:57:37;;;;;;;75.20;41.58;;;4.00;99.90;;;;;;5000789;28;20085;-73
2022/11/22 06:00:04;;;;;;;88.43;42.50;;;4.00;99.90;;;;;;5018139;28;20398;-75
2022/11/22 06:02:30;;;;;;;106.55;46.17;;;4.00;99.90;;;;;;4984978;28;20064;-75
2022/11/22 06:04:56;;;;;;;132.75;49.05;;;4.00;99.90;;;;;;5016719;28;20129;-74
2022/11/22 06:07:21;;;;;;;84.32;42.15;;;4.00;99.90;;;;;;5000574;28;20080;-74
2022/11/22 06:09:47;;;;;;;110.70;46.88;;;4.10;99.90;;;;;;4999906;28;20049;-74
2022/11/22 06:12:13;;;;;;;115.13;46.58;;;4.10;99.90;;;;;;5017910;28;20053;-74
2022/11/22 06:14:38;;;;;;;86.05;42.78;;;4.10;99.90;;;;;;5017784;28;20033;-75
2022/11/22 06:17:04;;;;;;;89.75;43.28;;;4.10;99.90;;;;;;5017481;28;20096;-75
2022/11/22 06:19:29;;;;;;;94.53;42.80;;;4.10;99.90;;;;;;5017220;28;20081;-75
2022/11/22 06:21:55;;;;;;;105.05;46.33;;;4.10;99.90;;;;;;4999729;28;20046;-74
2022/11/22 06:24:20;;;;;;;102.68;45.42;;;4.10;99.90;;;;;;5017229;28;20054;-75
2022/11/22 06:26:46;;;;;;;106.18;45.38;;;4.10;99.90;;;;;;5017594;28;20085;-74
2022/11/22 06:29:11;;;;;;;97.55;43.65;;;4.10;99.90;;;;;;5017158;28;20045;-75
2022/11/22 06:31:37;;;;;;;105.85;46.05;;;4.10;99.90;;;;;;4998964;28;20057;-73
2022/11/22 06:34:03;;;;;;;82.80;42.42;;;4.20;99.90;;;;;;5016943;28;20057;-74
2022/11/22 06:36:30;;;;;;;88.75;43.42;;;4.20;99.90;;;;;;5016293;28;20077;-74
2022/11/22 06:38:56;;;;;;;98.15;44.92;;;4.20;99.90;;;;;;5016841;28;20048;-75
2022/11/22 06:41:27;;;;;;;77.20;40.35;;;4.20;99.90;;;;;;5016912;28;20444;-74
2022/11/22 06:43:56;;;;;;;109.28;46.65;;;4.20;99.90;;;;;;5017016;28;20121;-74
2022/11/22 06:46:23;;;;;;;80.75;43.72;;;4.20;99.90;;;;;;5016946;28;20053;-74
2022/11/22 06:48:49;;;;;;;90.57;44.75;;;4.30;99.90;;;;;;5016985;28;20061;-75
2022/11/22 06:51:23;;;;;;;109.65;48.05;;;4.20;99.90;;;;;;5017262;28;20446;-74
2022/11/22 06:53:50;;;;;;;98.30;46.88;;;4.30;99.90;;;;;;5016886;28;20049;-75
2022/11/22 06:56:18;;;;;;;109.60;46.85;;;4.40;99.90;;;;;;5016608;28;20049;-75
2022/11/22 06:58:45;;;;;;;94.70;45.78;;;4.30;99.90;;;;;;5016723;28;20100;-74
2022/11/22 07:01:19;;;;;;;98.20;46.33;;;4.30;99.90;;;;;;5015683;28;20450;-74
2022/11/22 07:03:45;;;;;;;82.72;40.97;;;4.40;99.90;;;;;;5016907;28;20038;-74
2022/11/22 07:06:12;;;;;;;75.03;40.08;;;4.40;99.90;;;;;;5016930;28;20046;-74
2022/11/22 07:08:38;;;;;;;117.13;47.40;;;4.40;99.90;;;;;;5016918;28;20152;-74
2022/11/22 07:11:09;;;;;;;72.30;39.40;;;4.40;99.90;;;;;;5016712;28;20050;-75
2022/11/22 07:13:35;;;;;;;86.93;41.33;;;4.40;99.90;;;;;;5016016;28;20046;-74
2022/11/22 07:16:03;;;;;;;76.60;40.85;;;4.50;99.90;;;;;;5016592;28;20042;-76
2022/11/22 07:18:30;;;;;;;66.90;37.88;;;4.50;99.90;;;;;;5016239;28;20052;-75
2022/11/22 07:21:07;;;;;;;89.35;42.17;;;4.50;99.90;;;;;;5016127;28;20045;-74
2022/11/22 07:23:32;;;;;;;76.18;41.58;;;4.50;99.90;;;;;;5016662;28;20061;-75
2022/11/22 07:25:58;;;;;;;73.85;38.63;;;4.50;99.90;;;;;;5016681;28;20042;-75
2022/11/22 07:28:24;;;;;;;84.05;42.20;;;4.60;99.90;;;;;;5016246;28;20120;-74
2022/11/22 07:30:51;;;;;;;98.82;41.72;;;4.60;99.90;;;;;;5016800;28;20038;-75
2022/11/22 07:33:16;;;;;;;73.97;40.30;;;4.60;99.90;;;;;;5016186;28;20041;-75
2022/11/22 07:35:42;;;;;;;79.43;38.55;;;4.60;99.90;;;;;;5015836;28;20065;-74
2022/11/22 07:38:08;;;;;;;95.18;42.75;;;4.60;99.90;;;;;;5016168;28;20137;-75
2022/11/22 07:40:33;;;;;;;82.20;39.50;;;4.60;99.90;;;;;;5015545;28;20042;-74
2022/11/22 07:42:59;;;;;;;63.33;35.10;;;4.70;99.90;;;;;;4998664;28;20556;-75
2022/11/22 07:45:25;;;;;;;55.75;31.45;;;4.70;99.90;;;;;;5016316;28;20358;-75
2022/11/22 07:47:50;;;;;;;63.50;32.25;;;5.60;99.90;;;;;;5016163;28;20047;-74
2022/11/22 07:50:16;;;;;;;64.63;32.33;;;4.80;99.90;;;;;;4988513;28;20064;-74
2022/11/22 07:52:41;;;;;;;66.95;31.92;;;4.80;99.90;;;;;;5015102;28;20052;-74
2022/11/22 07:55:07;;;;;;;42.22;24.85;;;4.90;99.90;;;;;;5016079;28;20046;-77
2022/11/22 07:57:33;;;;;;;53.53;27.10;;;4.90;99.90;;;;;;5016045;28;20125;-74
2022/11/22 07:59:59;;;;;;;47.88;24.13;;;5.00;99.90;;;;;;5015469;28;20469;-74
2022/11/22 08:02:25;;;;;;;44.83;24.27;;;5.10;99.90;;;;;;5015711;28;20042;-74
2022/11/22 08:04:51;;;;;;;43.67;20.65;;;5.20;99.90;;;;;;5014514;28;20061;-74
2022/11/22 08:07:17;;;;;;;37.30;20.65;;;5.10;99.90;;;;;;5015880;28;20350;-74
2022/11/22 08:09:42;;;;;;;45.65;20.52;;;5.20;99.90;;;;;;5015398;28;20072;-74
2022/11/22 08:12:08;;;;;;;45.85;18.90;;;5.20;99.90;;;;;;5014736;28;20053;-75
2022/11/22 08:14:34;;;;;;;42.00;20.20;;;5.30;99.90;;;;;;5015003;28;20413;-75
2022/11/22 08:17:00;;;;;;;41.63;18.60;;;5.30;99.90;;;;;;5015642;28;20045;-74
2022/11/22 08:19:26;;;;;;;38.42;17.80;;;5.30;99.90;;;;;;5015696;28;20038;-75
2022/11/22 08:21:52;;;;;;;37.25;17.13;;;5.30;99.90;;;;;;5015301;28;20367;-75
2022/11/22 08:24:18;;;;;;;32.67;14.80;;;5.40;99.90;;;;;;5015417;28;20060;-75
2022/11/22 08:26:44;;;;;;;38.25;14.40;;;6.10;99.90;;;;;;5015246;28;20053;-75
2022/11/22 08:29:11;;;;;;;39.20;15.23;;;5.40;99.90;;;;;;4997769;28;20085;-75
2022/11/22 08:31:37;;;;;;;30.92;13.10;;;5.40;99.90;;;;;;5015401;28;20042;-75
2022/11/22 08:34:02;;;;;;;29.70;12.95;;;5.40;99.90;;;;;;5015247;28;20481;-75
2022/11/22 08:36:28;;;;;;;33.17;13.63;;;5.40;99.90;;;;;;4997954;28;20046;-74
2022/11/22 08:38:55;;;;;;;39.17;14.20;;;5.40;99.90;;;;;;5015556;28;20441;-76
2022/11/22 08:41:21;;;;;;;33.30;12.60;;;5.40;99.90;;;;;;5015097;28;20121;-74
2022/11/22 08:43:49;;;;;;;35.85;12.25;;;5.40;99.90;;;;;;5014487;28;20117;-75
2022/11/22 08:46:15;;;;;;;31.35;12.80;;;5.40;99.90;;;;;;5014548;28;20068;-74
2022/11/22 08:48:41;;;;;;;28.40;11.73;;;5.40;99.90;;;;;;5014343;28;20113;-75
2022/11/22 08:51:09;;;;;;;28.90;12.02;;;5.30;99.90;;;;;;5015285;28;20038;-74
2022/11/22 08:53:37;;;;;;;29.35;11.10;;;5.30;99.90;;;;;;5018269;28;20390;-74
2022/11/22 08:56:06;;;;;;;27.52;12.18;;;5.30;99.90;;;;;;5019155;28;20072;-75
2022/11/22 08:58:32;;;;;;;36.03;12.02;;;5.30;99.90;;;;;;5018767;28;20054;-74
2022/11/22 09:01:05;;;;;;;27.42;10.20;;;5.40;99.90;;;;;;5019393;28;20057;-76
2022/11/22 09:03:31;;;;;;;30.52;10.90;;;5.40;99.90;;;;;;5018728;28;20049;-74
2022/11/22 09:06:05;;;;;;;24.52;10.85;;;5.40;99.90;;;;;;5017578;28;20049;-75
2022/11/22 09:08:31;;;;;;;29.80;11.13;;;5.40;99.90;;;;;;5019066;28;20340;-74
2022/11/22 09:11:06;;;;;;;31.25;9.77;;;5.50;99.90;;;;;;5001230;28;20073;-74
2022/11/22 09:13:32;;;;;;;29.35;9.73;;;5.50;99.90;;;;;;5018759;28;20038;-75
2022/11/22 09:16:15;;;;;;;29.63;9.63;;;5.60;99.90;;;;;;5018468;28;20093;-75
2022/11/22 09:18:41;;;;;;;23.35;8.88;;;5.60;99.90;;;;;;5018315;28;20409;-75
2022/11/22 09:21:09;;;;;;;31.00;9.70;;;5.70;99.90;;;;;;5018607;28;20049;-74
2022/11/22 09:23:35;;;;;;;23.50;8.40;;;5.70;99.90;;;;;;5018652;28;20130;-74
2022/11/22 09:26:04;;;;;;;28.35;8.98;;;5.80;99.90;;;;;;5018467;28;20049;-75
2022/11/22 09:28:30;;;;;;;26.60;7.43;;;5.80;99.90;;;;;;5018247;28;20461;-74
2022/11/22 09:30:59;;;;;;;25.98;6.70;;;5.90;99.90;;;;;;5017104;28;20096;-75
2022/11/22 09:33:25;;;;;;;23.92;6.60;;;5.90;99.90;;;;;;5018410;28;20038;-74
2022/11/22 09:35:50;;;;;;;20.77;6.18;;;5.90;99.90;;;;;;5017207;28;20054;-74
2022/11/22 09:38:16;;;;;;;18.65;5.85;;;6.00;99.90;;;;;;5017395;28;20046;-75
2022/11/22 09:40:46;;;;;;;24.40;6.05;;;6.00;99.90;;;;;;5018008;28;20138;-75
2022/11/22 09:43:23;;;;;;;19.17;6.22;;;6.00;99.90;;;;;;5017916;28;20045;-74
2022/11/22 09:46:07;;;;;;;15.50;5.93;;;6.00;99.90;;;;;;5018250;28;20461;-75
2022/11/22 09:48:35;;;;;;;;;;;6.00;99.90;;;;;;5018462;28;20457;-74
2022/11/22 09:51:16;;;;;;;21.83;5.88;;;6.00;99.90;;;;;;5018223;28;19921;-75
2022/11/22 09:53:54;;;;;;;19.75;5.32;;;6.10;99.90;;;;;;5018709;28;20191;-75
2022/11/22 09:56:24;;;;;;;20.73;5.53;;;6.10;99.90;;;;;;5017488;28;20442;-75
2022/11/22 09:58:59;;;;;;;16.27;5.68;;;6.10;99.90;;;;;;5017508;28;20037;-74
2022/11/22 10:01:38;;;;;;;19.20;5.90;;;6.20;99.90;;;;;;5017997;28;20050;-75
2022/11/22 10:04:20;;;;;;;20.15;5.35;;;6.20;99.90;;;;;;5017386;28;20060;-76
2022/11/22 10:06:51;;;;;;;17.70;5.10;;;6.20;99.90;;;;;;5017714;28;20050;-75
2022/11/22 10:09:46;;;;;;;19.58;5.63;;;6.30;99.90;;;;;;5017526;28;20196;-75
2022/11/22 10:12:25;;;;;;;16.55;5.15;;;6.40;99.90;;;;;;5017645;28;20054;-75
2022/11/22 10:15:03;;;;;;;17.10;4.45;;;6.40;99.90;;;;;;5016907;28;20049;-75
2022/11/22 10:17:49;;;;;;;15.68;4.63;;;6.50;99.90;;;;;;5037956;28;20042;-76
2022/11/22 10:20:18;;;;;;;17.75;4.90;;;6.50;99.90;;;;;;5037724;28;20041;-76
2022/11/22 10:22:43;;;;;;;17.95;4.53;;;6.50;99.90;;;;;;5037091;28;20049;-76
2022/11/22 10:25:36;;;;;;;15.43;4.82;;;6.50;99.90;;;;;;5037498;28;20099;-74
2022/11/22 10:28:29;;;;;;;13.30;4.82;;;6.50;99.90;;;;;;5020573;28;20053;-75
2022/11/22 10:31:16;;;;;;;16.30;4.50;;;6.50;99.90;;;;;;5036776;28;20096;-74
2022/11/22 10:34:02;;;;;;;18.05;4.63;;;6.50;99.90;;;;;;5036790;28;20053;-75
2022/11/22 10:36:41;;;;;;;14.23;4.05;;;6.50;99.90;;;;;;5037101;28;20045;-75
2022/11/22 10:39:21;;;;;;;14.55;4.72;;;6.50;99.90;;;;;;5036994;28;20055;-74
2022/11/22 10:42:25;;;;;;;15.05;4.88;;;6.60;99.90;;;;;;5037615;28;20049;-76
2022/11/22 10:45:14;;;;;;;15.82;3.97;;;6.60;99.90;;;;;;4993791;28;20054;-75
2022/11/22 10:47:47;;;;;;;13.10;4.18;;;6.70;99.90;;;;;;4996908;28;20537;-76
2022/11/22 10:50:18;;;;;;;12.25;4.18;;;6.80;99.90;;;;;;4997814;28;20039;-75
2022/11/22 10:53:00;;;;;;;10.45;3.35;;;6.80;99.90;;;;;;4979856;28;20057;-76
2022/11/22 10:55:49;;;;;;;13.52;3.80;;;6.80;99.90;;;;;;4980136;28;20042;-75
2022/11/22 10:58:46;;;;;;;14.50;3.95;;;7.10;99.90;;;;;;5007362;28;20455;-75
2022/11/22 11:01:37;;;;;;;14.48;3.92;;;6.80;99.90;;;;;;5016647;28;20129;-74
2022/11/22 11:04:05;;;;;;;12.27;3.67;;;6.80;99.90;;;;;;5017386;28;20089;-75
2022/11/22 11:06:36;;;;;;;16.25;4.18;;;6.80;99.90;;;;;;5017314;28;20441;-75
2022/11/22 11:09:20;;;;;;;14.40;4.20;;;6.80;99.90;;;;;;5016721;28;20054;-75
2022/11/22 11:11:46;;;;;;;14.05;3.63;;;6.70;99.90;;;;;;5016334;28;20454;-74
2022/11/22 11:14:40;;;;;;;10.68;3.58;;;6.70;99.90;;;;;;4996281;28;20120;-75
2022/11/22 11:17:06;;;;;;;12.65;4.00;;;6.60;99.90;;;;;;4995928;28;20061;-75
2022/11/22 11:19:37;;;;;;;12.68;3.60;;;6.60;99.90;;;;;;4979658;28;20134;-75
2022/11/22 11:22:06;;;;;;;12.27;3.65;;;6.60;99.90;;;;;;4996701;28;20047;-75
2022/11/22 11:24:32;;;;;;;21.83;4.57;;;6.70;99.90;;;;;;4997205;28;20050;-76
2022/11/22 11:26:59;;;;;;;10.93;3.70;;;6.80;99.90;;;;;;5000731;28;20058;-75
2022/11/22 11:30:01;;;;;;;11.43;3.65;;;6.80;99.90;;;;;;5016425;28;20069;-75
2022/11/22 11:32:26;;;;;;;13.82;3.78;;;6.90;99.90;;;;;;5016094;28;20120;-75
2022/11/22 11:34:56;;;;;;;11.68;3.30;;;7.60;99.90;;;;;;5016025;28;20128;-75
2022/11/22 11:37:32;;;;;;;14.43;3.30;;;7.00;99.90;;;;;;5016211;28;20042;-75
2022/11/22 11:39:57;;;;;;;13.38;4.18;;;7.00;99.90;;;;;;4998825;28;20058;-75
2022/11/22 11:42:29;;;;;;;20.10;3.60;;;7.00;99.90;;;;;;5015598;28;20357;-75
2022/11/22 11:45:18;;;;;;;13.13;3.58;;;7.10;99.90;;;;;;5035637;28;20092;-75
2022/11/22 11:47:44;;;;;;;16.20;4.03;;;7.10;99.90;;;;;;5035827;28;20041;-75
2022/11/22 11:50:24;;;;;;;11.48;3.25;;;7.10;99.90;;;;;;5036430;28;20315;-75
2022/11/22 11:53:16;;;;;;;11.25;3.10;;;7.10;99.90;;;;;;5035356;28;20070;-75
2022/11/22 11:55:42;;;;;;;10.02;3.03;;;7.10;99.90;;;;;;5018456;28;20053;-74
2022/11/22 11:58:22;;;;;;;14.10;3.50;;;7.10;99.90;;;;;;5017721;28;20042;-75
2022/11/22 12:00:48;;;;;;;8.93;3.40;;;7.20;99.90;;;;;;5035536;28;20075;-75
2022/11/22 12:03:18;;;;;;;12.77;3.13;;;7.20;99.90;;;;;;5035250;28;20072;-76
2022/11/22 12:05:43;;;;;;;13.95;3.58;;;7.30;99.90;;;;;;5035318;28;20184;-74
2022/11/22 12:08:29;;;;;;;13.73;3.50;;;7.80;99.90;;;;;;5017902;28;20456;-75
2022/11/22 12:11:05;;;;;;;13.55;3.58;;;7.30;99.90;;;;;;5033555;28;20121;-76
2022/11/22 12:13:53;;;;;;;12.85;3.10;;;7.30;99.90;;;;;;5015722;28;20072;-75
2022/11/22 12:16:24;;;;;;;7.38;3.22;;;7.30;99.90;;;;;;5015781;28;20072;-75
2022/11/22 12:19:17;;;;;;;13.32;3.63;;;7.40;99.90;;;;;;5015533;28;20046;-75
2022/11/22 12:22:12;;;;;;;14.45;3.65;;;7.40;99.90;;;;;;5015718;28;20045;-76
2022/11/22 12:24:52;;;;;;;11.70;3.00;;;7.50;99.90;;;;;;5015557;28;20046;-76
2022/11/22 12:27:18;;;;;;;11.32;3.10;;;7.40;99.90;;;;;;5015056;28;20041;-75
2022/11/22 12:29:44;;;;;;;12.93;3.60;;;7.50;99.90;;;;;;5015521;28;20132;-75
2022/11/22 12:32:09;;;;;;;12.13;3.17;;;7.50;99.90;;;;;;5015251;28;20141;-75
2022/11/22 12:35:00;;;;;;;9.77;3.08;;;7.50;99.90;;;;;;5015040;28;20100;-75
2022/11/22 12:37:38;;;;;;;11.75;2.92;;;7.60;99.90;;;;;;5015191;28;20046;-75
2022/11/22 12:40:17;;;;;;;13.57;3.38;;;7.60;99.90;;;;;;5015488;28;20355;-75
2022/11/22 12:42:47;;;;;;;11.82;3.50;;;7.60;99.90;;;;;;5015279;28;20045;-75
2022/11/22 12:45:41;;;;;;;13.85;3.42;;;7.70;99.90;;;;;;5015555;28;20409;-75
2022/11/22 12:48:32;;;;;;;11.90;2.95;;;7.70;99.90;;;;;;5014565;28;20137;-75
2022/11/22 12:51:17;;;;;;;12.13;2.92;;;7.60;99.90;;;;;;5015338;28;20358;-75
2022/11/22 12:53:44;;;;;;;10.07;3.47;;;8.00;99.90;;;;;;5019299;28;20042;-75
2022/11/22 12:56:43;;;;;;;17.02;3.80;;;7.70;99.90;;;;;;5034862;28;20053;-75
2022/11/22 12:59:16;;;;;;;11.50;2.97;;;7.70;99.90;;;;;;5021613;28;20107;-75
2022/11/22 13:01:44;;;;;;;10.65;2.97;;;7.70;99.90;;;;;;5034636;28;20042;-75
2022/11/22 13:04:10;;;;;;;11.70;3.33;;;7.70;99.90;;;;;;5033796;28;20073;-76
2022/11/22 13:07:06;;;;;;;8.60;2.67;;;7.70;99.90;;;;;;4995378;28;20152;-75
2022/11/22 13:09:40;;;;;;;8.70;2.65;;;7.70;99.90;;;;;;4973939;28;20096;-75